« Back
NWS Peachtree City, Ga » Text Product » ATL Terminal Aerodrome Forecast


Printer-friendly Version
Current Version              Previous Versions:   1  2  3  4  5  6  7  8  9  

Terminal Aerodrome Forecast

703
FTUS42 KFFC 280531
TAFATL
TAF
KATL 280531Z 2806/2912 31009KT P6SM FEW060
     FM281400 32010KT P6SM FEW250
     FM290300 34005KT P6SM SKC=

USA.gov is the U.S. government's official web portal to all federal, state and local government web resources and services.